createdAt,value
2022-11-09T00:02:26.537Z,1.87
2022-11-09T00:05:29.085Z,2.20
2022-11-09T00:08:33.151Z,2.17
2022-11-09T00:11:36.087Z,1.90
2022-11-09T00:14:38.828Z,1.63
2022-11-09T00:17:41.571Z,1.77
2022-11-09T00:23:52.165Z,2.13
2022-11-09T00:26:54.949Z,1.90
2022-11-09T00:29:57.482Z,1.90
2022-11-09T00:33:00.331Z,1.98
2022-11-09T00:36:07.581Z,2.30
2022-11-09T00:39:11.613Z,2.15
2022-11-09T00:42:14.313Z,1.92
2022-11-09T00:45:17.116Z,1.90
2022-11-09T00:48:19.823Z,1.90
2022-11-09T00:51:22.451Z,1.90
2022-11-09T00:54:26.558Z,1.90
2022-11-09T00:57:29.354Z,1.80
2022-11-09T01:00:31.935Z,1.93
2022-11-09T01:03:34.794Z,2.05
2022-11-09T01:06:37.453Z,1.98
2022-11-09T01:09:41.468Z,1.80
2022-11-09T01:12:44.170Z,1.75
2022-11-09T01:15:49.212Z,1.70
2022-11-09T01:18:54.291Z,2.15
2022-11-09T01:21:56.841Z,2.10
2022-11-09T01:25:00.994Z,1.88
2022-11-09T01:28:04.627Z,2.05
2022-11-09T01:31:08.657Z,1.73
2022-11-09T01:34:14.571Z,1.88
2022-11-09T01:37:17.131Z,2.47
2022-11-09T01:40:21.190Z,1.73
2022-11-09T01:43:25.366Z,2.20
2022-11-09T01:46:35.514Z,1.97
2022-11-09T01:49:42.121Z,1.90
2022-11-09T01:52:48.307Z,1.90
2022-11-09T01:55:56.410Z,2.15
2022-11-09T01:59:02.688Z,2.17
2022-11-09T02:02:06.135Z,2.27
2022-11-09T02:05:13.813Z,1.73
2022-11-09T02:08:19.690Z,2.03
2022-11-09T02:11:25.329Z,1.88
2022-11-09T02:14:30.737Z,2.30
2022-11-09T02:17:35.150Z,2.07
2022-11-09T02:20:48.400Z,1.98
2022-11-09T02:23:51.738Z,1.90
2022-11-09T02:26:55.782Z,2.00
2022-11-09T02:30:00.247Z,2.47
2022-11-09T02:33:02.822Z,1.83
2022-11-09T02:36:07.277Z,2.00
2022-11-09T02:39:11.139Z,2.15
2022-11-09T02:42:21.261Z,1.90
2022-11-09T02:45:24.478Z,2.08
2022-11-09T02:48:27.287Z,2.30
2022-11-09T02:51:31.678Z,1.98
2022-11-09T02:54:34.293Z,2.10
2022-11-09T02:57:37.045Z,1.88
2022-11-09T03:00:39.742Z,1.80
2022-11-09T03:03:42.438Z,1.97
2022-11-09T03:06:46.532Z,2.22
2022-11-09T03:09:49.103Z,2.17
2022-11-09T03:12:51.825Z,2.08
2022-11-09T03:15:54.622Z,2.22
2022-11-09T03:18:58.093Z,1.97
2022-11-09T03:22:02.201Z,2.20
2022-11-09T03:25:05.328Z,1.92
2022-11-09T03:28:09.085Z,2.10
2022-11-09T03:31:11.967Z,2.15
2022-11-09T03:34:14.770Z,2.10
2022-11-09T03:37:19.375Z,2.30
2022-11-09T03:40:22.402Z,2.63
2022-11-09T03:43:25.099Z,1.90
2022-11-09T03:46:28.078Z,2.00
2022-11-09T03:49:30.736Z,2.03
2022-11-09T03:52:35.085Z,2.03
2022-11-09T03:55:38.310Z,2.10
2022-11-09T03:58:41.043Z,1.90
2022-11-09T04:01:43.809Z,2.08
2022-11-09T04:04:46.478Z,1.90
2022-11-09T04:07:52.302Z,1.88
2022-11-09T04:10:55.505Z,2.47
2022-11-09T04:13:58.236Z,2.13
2022-11-09T04:17:00.913Z,2.33
2022-11-09T04:20:03.652Z,1.90
2022-11-09T04:23:10.955Z,2.00
2022-11-09T04:26:13.491Z,1.90
2022-11-09T04:29:16.194Z,2.17
2022-11-09T04:32:18.986Z,1.98
2022-11-09T04:35:21.560Z,2.10
2022-11-09T04:38:25.513Z,2.30
2022-11-09T04:41:28.825Z,2.30
2022-11-09T04:44:31.380Z,2.00
2022-11-09T04:47:33.935Z,1.90
2022-11-09T04:50:36.765Z,2.10
2022-11-09T04:53:41.415Z,2.00
2022-11-09T04:56:44.029Z,2.50
2022-11-09T04:59:46.774Z,1.92
2022-11-09T05:02:49.329Z,2.20
2022-11-09T05:05:51.990Z,2.10
2022-11-09T05:08:57.078Z,2.33
2022-11-09T05:11:59.649Z,2.50
2022-11-09T05:15:02.343Z,2.05
2022-11-09T05:18:06.236Z,2.30
2022-11-09T05:21:08.797Z,2.20
2022-11-09T05:24:13.063Z,1.85
2022-11-09T05:27:17.321Z,2.33
2022-11-09T05:30:20.320Z,2.30
2022-11-09T05:33:23.365Z,2.88
2022-11-09T05:36:27.761Z,2.40
2022-11-09T05:39:31.762Z,2.10
2022-11-09T05:42:34.330Z,2.40
2022-11-09T05:45:42.733Z,2.30
2022-11-09T05:48:46.624Z,2.28
2022-11-09T05:51:49.172Z,2.20
2022-11-09T05:54:53.079Z,2.25
2022-11-09T05:57:55.785Z,2.30
2022-11-09T06:00:59.899Z,2.40
2022-11-09T06:04:02.623Z,2.40
2022-11-09T06:07:05.295Z,2.10
2022-11-09T06:10:10.596Z,2.30
2022-11-09T06:13:13.157Z,2.50
2022-11-09T06:16:15.908Z,2.50
2022-11-09T06:19:18.490Z,2.72
2022-11-09T06:22:21.060Z,2.20
2022-11-09T06:25:25.873Z,2.80
2022-11-09T06:28:28.912Z,2.83
2022-11-09T06:31:31.658Z,2.42
2022-11-09T06:34:34.395Z,2.58
2022-11-09T06:37:37.196Z,2.50
2022-11-09T06:40:41.230Z,2.08
2022-11-09T06:43:44.019Z,2.60
2022-11-09T06:46:46.611Z,2.60
2022-11-09T06:49:49.342Z,2.53
2022-11-09T06:52:51.921Z,2.17
2022-11-09T06:55:58.762Z,2.40
2022-11-09T06:59:01.343Z,2.70
2022-11-09T07:02:04.069Z,2.40
2022-11-09T07:05:07.282Z,3.00
2022-11-09T07:08:10.498Z,2.80
2022-11-09T07:11:17.018Z,2.80
2022-11-09T07:14:19.632Z,2.83
2022-11-09T07:17:22.334Z,3.08
2022-11-09T07:20:25.103Z,3.50
2022-11-09T07:23:27.737Z,2.73
2022-11-09T07:26:31.770Z,2.90
2022-11-09T07:29:34.364Z,2.70
2022-11-09T07:33:07.342Z,2.28
2022-11-09T07:36:02.074Z,2.97
2022-11-09T07:39:09.643Z,2.65
2022-11-09T07:42:13.684Z,3.00
2022-11-09T07:45:16.362Z,2.60
2022-11-09T07:48:19.103Z,3.00
2022-11-09T07:51:21.812Z,2.85
2022-11-09T07:54:25.759Z,2.83
2022-11-09T07:57:29.796Z,3.22
2022-11-09T08:00:34.602Z,2.90
2022-11-09T08:03:37.739Z,2.70
2022-11-09T08:06:40.351Z,3.58
2022-11-09T08:09:43.479Z,3.17
2022-11-09T08:12:54.573Z,3.58
2022-11-09T08:15:57.172Z,2.80
2022-11-09T08:18:59.863Z,2.30
2022-11-09T08:22:02.588Z,3.08
2022-11-09T08:25:05.766Z,3.22
2022-11-09T08:28:14.470Z,3.55
2022-11-09T08:31:17.685Z,3.70
2022-11-09T08:34:20.402Z,2.95
2022-11-09T08:37:22.996Z,3.13
2022-11-09T08:40:26.930Z,2.90
2022-11-09T08:43:30.893Z,3.13
2022-11-09T08:46:38.372Z,3.10
2022-11-09T08:49:44.575Z,2.97
2022-11-09T08:52:47.146Z,3.42
2022-11-09T08:55:49.836Z,2.75
2022-11-09T08:58:53.922Z,3.00
2022-11-09T09:01:56.668Z,3.27
2022-11-09T09:04:59.291Z,2.70
2022-11-09T09:08:02.753Z,3.40
2022-11-09T09:11:06.208Z,2.97
2022-11-09T09:14:10.303Z,3.20
2022-11-09T09:17:13.057Z,3.07
2022-11-09T09:20:16.281Z,3.28
2022-11-09T09:23:19.013Z,2.97
2022-11-09T09:26:22.321Z,3.35
2022-11-09T09:29:26.418Z,3.40
2022-11-09T09:32:30.069Z,2.90
2022-11-09T09:35:32.859Z,3.80
2022-11-09T09:38:35.539Z,3.20
2022-11-09T09:41:41.691Z,3.08
2022-11-09T09:44:51.942Z,3.22
2022-11-09T09:48:00.284Z,2.83
2022-11-09T09:51:07.782Z,2.67
2022-11-09T09:54:17.450Z,3.05
2022-11-09T09:57:23.088Z,2.40
2022-11-09T10:00:29.000Z,2.90
2022-11-09T10:03:32.289Z,2.47
2022-11-09T10:06:44.194Z,3.10
2022-11-09T10:10:10.992Z,3.10
2022-11-09T10:13:30.977Z,2.85
2022-11-09T10:16:43.847Z,2.90
2022-11-09T10:20:01.120Z,2.50
2022-11-09T10:23:24.508Z,3.10
2022-11-09T10:26:34.383Z,3.00
2022-11-09T10:29:42.742Z,2.67
2022-11-09T10:32:51.577Z,2.90
2022-11-09T10:36:06.856Z,2.93
2022-11-09T10:39:14.777Z,2.78
2022-11-09T10:42:17.470Z,2.90
2022-11-09T10:45:29.268Z,2.25
2022-11-09T10:48:36.539Z,2.75
2022-11-09T10:51:42.361Z,2.80
2022-11-09T10:54:44.984Z,2.75
2022-11-09T10:58:00.325Z,3.20
2022-11-09T11:01:06.074Z,2.55
2022-11-09T11:04:23.266Z,2.47
2022-11-09T11:07:26.393Z,2.37
2022-11-09T11:10:29.144Z,2.13
2022-11-09T11:13:31.769Z,2.53
2022-11-09T11:16:35.957Z,2.60
2022-11-09T11:19:41.551Z,2.83
2022-11-09T11:22:44.235Z,2.40
2022-11-09T11:26:00.730Z,2.25
2022-11-09T11:29:14.076Z,2.75
2022-11-09T11:32:21.269Z,2.30
2022-11-09T11:35:35.374Z,2.33
2022-11-09T11:38:42.460Z,2.27
2022-11-09T11:42:15.866Z,2.30
2022-11-09T11:45:41.580Z,2.30
2022-11-09T11:49:10.023Z,2.42
2022-11-09T11:52:19.644Z,1.90
2022-11-09T11:55:40.780Z,2.40
2022-11-09T11:58:56.699Z,1.83
2022-11-09T12:02:23.031Z,2.13
2022-11-09T12:05:56.260Z,1.58
2022-11-09T12:09:22.786Z,2.00
2022-11-09T12:12:36.408Z,2.17
2022-11-09T12:15:51.878Z,1.80
2022-11-09T12:19:23.876Z,2.28
2022-11-09T12:22:40.534Z,1.75
2022-11-09T12:25:50.032Z,1.63
2022-11-09T12:29:08.861Z,1.80
2022-11-09T12:32:22.357Z,1.60
2022-11-09T12:35:33.251Z,2.22
2022-11-09T12:38:42.414Z,1.52
2022-11-09T12:41:49.980Z,1.67
2022-11-09T12:45:02.898Z,1.60
2022-11-09T12:48:16.368Z,1.42
2022-11-09T12:51:20.813Z,1.50
2022-11-09T12:54:25.106Z,1.80
2022-11-09T12:57:31.206Z,1.50
2022-11-09T13:00:51.871Z,1.40
2022-11-09T13:03:57.563Z,1.60
2022-11-09T13:07:49.527Z,1.58
2022-11-09T13:11:10.152Z,1.52
2022-11-09T13:14:39.412Z,1.40
2022-11-09T13:17:56.955Z,1.53
2022-11-09T13:21:35.058Z,1.45
2022-11-09T13:24:57.120Z,1.20
2022-11-09T13:28:00.024Z,1.40
2022-11-09T13:31:04.900Z,1.30
2022-11-09T13:34:46.059Z,1.50
2022-11-09T13:37:56.047Z,1.48
2022-11-09T13:40:59.767Z,1.50
2022-11-09T13:44:16.186Z,1.30
2022-11-09T13:47:25.022Z,1.52
2022-11-09T13:50:30.053Z,1.50
2022-11-09T13:53:52.767Z,2.17
2022-11-09T13:56:56.308Z,1.75
2022-11-09T14:00:00.902Z,1.73
2022-11-09T14:03:17.025Z,1.80
2022-11-09T14:06:20.513Z,1.60
2022-11-09T14:09:23.270Z,1.40
2022-11-09T14:12:42.078Z,1.80
2022-11-09T14:15:53.279Z,1.70
2022-11-09T14:19:17.808Z,1.67
2022-11-09T14:22:21.284Z,1.50
2022-11-09T14:25:25.885Z,1.42
2022-11-09T14:28:30.444Z,1.80
2022-11-09T14:31:33.290Z,1.50
2022-11-09T14:34:37.519Z,1.90
2022-11-09T14:37:45.745Z,1.53
2022-11-09T14:40:50.001Z,1.75
2022-11-09T14:43:54.663Z,1.90
2022-11-09T14:46:58.199Z,1.83
2022-11-09T14:50:02.660Z,1.90
2022-11-09T14:53:06.033Z,2.10
2022-11-09T14:56:12.747Z,1.80
2022-11-09T14:59:17.391Z,1.90
2022-11-09T15:02:22.268Z,1.60
2022-11-09T15:05:40.032Z,1.70
2022-11-09T15:08:51.699Z,1.63
2022-11-09T15:11:55.071Z,1.85
2022-11-09T15:15:01.509Z,1.80
2022-11-09T15:18:04.547Z,1.90
2022-11-09T15:21:21.769Z,2.10
2022-11-09T15:24:26.765Z,1.70
2022-11-09T15:27:32.117Z,2.13
2022-11-09T15:30:39.853Z,2.10
2022-11-09T15:33:49.788Z,2.35
2022-11-09T15:36:56.399Z,1.87
2022-11-09T15:40:00.193Z,2.08
2022-11-09T15:43:03.087Z,2.10
2022-11-09T15:46:06.737Z,1.90
2022-11-09T15:49:19.079Z,2.05
2022-11-09T15:52:23.254Z,1.67
2022-11-09T15:55:26.592Z,1.90
2022-11-09T15:58:29.440Z,1.95
2022-11-09T16:01:32.947Z,1.42
2022-11-09T16:04:35.791Z,1.85
2022-11-09T16:07:48.257Z,2.20
2022-11-09T16:10:50.968Z,2.20
2022-11-09T16:13:53.653Z,2.00
2022-11-09T16:16:56.363Z,2.20
2022-11-09T16:19:59.022Z,1.80
2022-11-09T16:23:03.239Z,1.90
2022-11-09T16:26:09.205Z,2.00
2022-11-09T16:29:12.046Z,1.95
2022-11-09T16:32:14.709Z,1.90
2022-11-09T16:35:32.996Z,1.98
2022-11-09T16:38:40.031Z,2.23
2022-11-09T16:41:43.919Z,2.30
2022-11-09T16:44:49.188Z,2.55
2022-11-09T16:47:57.034Z,2.30
2022-11-09T16:50:59.901Z,2.42
2022-11-09T16:54:04.114Z,2.20
2022-11-09T16:57:06.797Z,2.92
2022-11-09T17:00:10.673Z,4.88
2022-11-09T17:03:14.136Z,3.88
2022-11-09T17:06:17.023Z,3.23
2022-11-09T17:09:21.708Z,2.50
2022-11-09T17:12:24.800Z,2.50
2022-11-09T17:15:27.900Z,2.70
2022-11-09T17:18:30.588Z,3.58
2022-11-09T17:21:33.300Z,4.67
2022-11-09T17:24:37.337Z,4.20
2022-11-09T17:27:40.185Z,4.45
2022-11-09T17:30:42.926Z,4.85
2022-11-09T17:33:45.901Z,5.28
2022-11-09T17:37:03.651Z,5.20
2022-11-09T17:40:09.798Z,5.30
2022-11-09T17:43:12.609Z,5.30
2022-11-09T17:46:16.933Z,5.38
2022-11-09T17:49:19.750Z,7.15
2022-11-09T17:52:22.420Z,8.60
2022-11-09T17:55:26.601Z,7.30
2022-11-09T17:58:30.155Z,6.20
2022-11-09T18:01:39.520Z,5.93
2022-11-09T18:04:43.782Z,6.40
2022-11-09T18:07:46.443Z,6.90
2022-11-09T18:10:51.152Z,6.07
2022-11-09T18:13:54.314Z,4.28
2022-11-09T18:16:59.618Z,2.78
2022-11-09T18:20:02.462Z,1.58
2022-11-09T18:23:05.123Z,1.70
2022-11-09T18:26:10.159Z,1.83
2022-11-09T18:29:13.061Z,2.17
2022-11-09T18:32:15.799Z,1.70
2022-11-09T18:35:18.630Z,1.23
2022-11-09T18:38:24.322Z,1.30
2022-11-09T18:41:30.801Z,1.50
2022-11-09T18:44:33.667Z,1.00
2022-11-09T18:47:36.528Z,1.17
2022-11-09T18:50:39.665Z,1.20
2022-11-09T18:53:44.517Z,1.60
2022-11-09T18:56:49.044Z,1.67
2022-11-09T18:59:51.761Z,1.40
2022-11-09T19:02:54.498Z,1.65
2022-11-09T19:05:57.440Z,1.85
2022-11-09T19:09:17.763Z,1.70
2022-11-09T19:12:22.046Z,1.77
2022-11-09T19:15:24.774Z,1.90
2022-11-09T19:18:27.641Z,2.67
2022-11-09T19:21:37.990Z,2.47
2022-11-09T19:24:40.874Z,2.70
2022-11-09T19:27:44.947Z,2.93
2022-11-09T19:30:47.615Z,2.63
2022-11-09T19:33:50.283Z,2.95
2022-11-09T19:36:52.987Z,2.60
2022-11-09T19:39:55.739Z,3.13
2022-11-09T19:42:59.792Z,2.40
2022-11-09T19:46:05.188Z,2.67
2022-11-09T19:49:09.241Z,2.83
2022-11-09T19:52:12.695Z,2.70
2022-11-09T19:55:15.642Z,2.50
2022-11-09T19:58:19.976Z,2.30
2022-11-09T20:01:23.582Z,2.80
2022-11-09T20:04:26.364Z,2.80
2022-11-09T20:07:29.587Z,2.55
2022-11-09T20:10:32.452Z,2.77
2022-11-09T20:13:39.074Z,2.60
2022-11-09T20:16:44.391Z,2.55
2022-11-09T20:19:47.102Z,2.20
2022-11-09T20:22:50.013Z,2.22
2022-11-09T20:25:52.839Z,2.10
2022-11-09T20:28:56.972Z,2.28
2022-11-09T20:31:59.796Z,2.38
2022-11-09T20:35:02.691Z,2.10
2022-11-09T20:38:05.521Z,2.42
2022-11-09T20:41:11.346Z,2.17
2022-11-09T20:44:15.591Z,2.15
2022-11-09T20:47:30.292Z,2.65
2022-11-09T20:50:40.925Z,2.70
2022-11-09T20:53:44.174Z,2.92
2022-11-09T20:56:46.969Z,2.40
2022-11-09T20:59:51.215Z,2.40
2022-11-09T21:02:53.952Z,2.60
2022-11-09T21:05:59.096Z,2.72
2022-11-09T21:09:04.320Z,3.03
2022-11-09T21:12:22.460Z,2.57
2022-11-09T21:15:26.574Z,2.47
2022-11-09T21:18:29.244Z,2.80
2022-11-09T21:21:36.210Z,2.72
2022-11-09T21:24:57.098Z,2.47
2022-11-09T21:28:20.027Z,2.50
2022-11-09T21:31:24.413Z,3.00
2022-11-09T21:34:29.506Z,3.05
2022-11-09T21:37:35.636Z,3.33
2022-11-09T21:40:38.353Z,3.38
2022-11-09T21:43:41.162Z,3.70
2022-11-09T21:46:46.252Z,3.00
2022-11-09T21:49:49.040Z,3.28
2022-11-09T21:52:51.878Z,2.63
2022-11-09T21:55:54.599Z,2.83
2022-11-09T21:58:57.703Z,2.73
2022-11-09T22:02:01.766Z,3.00
2022-11-09T22:05:05.003Z,2.67
2022-11-09T22:08:08.007Z,2.75
2022-11-09T22:11:13.270Z,2.65
2022-11-09T22:14:35.973Z,2.50
2022-11-09T22:17:40.174Z,2.40
2022-11-09T22:20:56.978Z,2.35
2022-11-09T22:24:00.494Z,2.30
2022-11-09T22:27:03.335Z,2.30
2022-11-09T22:30:07.332Z,2.23
2022-11-09T22:33:11.614Z,2.30
2022-11-09T22:36:15.313Z,2.35
2022-11-09T22:39:18.211Z,2.10
2022-11-09T22:42:21.042Z,2.30
2022-11-09T22:45:23.927Z,2.03
2022-11-09T22:48:28.344Z,2.15
2022-11-09T22:51:31.372Z,2.30
2022-11-09T22:54:34.230Z,2.30
2022-11-09T22:57:37.872Z,2.53
2022-11-09T23:00:41.770Z,2.10
2022-11-09T23:03:45.867Z,1.90
2022-11-09T23:06:48.892Z,1.90
2022-11-09T23:09:51.765Z,1.70
2022-11-09T23:12:54.424Z,1.80
2022-11-09T23:15:58.528Z,1.60
2022-11-09T23:19:02.610Z,1.45
2022-11-09T23:22:05.501Z,1.30
2022-11-09T23:25:26.712Z,1.58
2022-11-09T23:28:29.564Z,1.52
2022-11-09T23:31:32.402Z,1.80
2022-11-09T23:34:36.446Z,1.23
2022-11-09T23:37:39.817Z,1.42
2022-11-09T23:40:42.531Z,1.40
2022-11-09T23:43:49.249Z,1.45
2022-11-09T23:46:52.443Z,1.50
2022-11-09T23:49:56.711Z,1.33
2022-11-09T23:53:02.875Z,1.13
2022-11-09T23:56:07.975Z,1.27
2022-11-09T23:59:10.671Z,1.50
